Time;durP1;ratioP1;P1;durP2;ratioP2;P2;SDS_P1;SDS_P2;PMS_P1;PMS_P2;Temp;Humidity;BMP_temperature;BMP_pressure;BME280_temperature;BME280_humidity;BME280_pressure;Samples;Min_cycle;Max_cycle;Signal;HPM_P1;HPM_P2
2023/12/08 00:01:48;;;;;;;53.63;23.17;;;0.40;99.90;;;;;;5024635;28;20225;-80
2023/12/08 00:04:16;;;;;;;37.70;21.87;;;0.30;99.90;;;;;;5042221;28;20409;-80
2023/12/08 00:06:43;;;;;;;39.73;21.73;;;0.30;99.90;;;;;;5022802;28;20227;-79
2023/12/08 00:09:10;;;;;;;52.63;23.10;;;0.20;99.90;;;;;;5008311;28;20224;-80
2023/12/08 00:11:38;;;;;;;41.57;22.60;;;0.20;99.90;;;;;;5034787;28;20223;-80
2023/12/08 00:14:05;;;;;;;117.17;26.60;;;0.10;99.90;;;;;;5038910;28;20324;-80
2023/12/08 00:16:32;;;;;;;99.73;26.43;;;0.10;99.90;;;;;;5042298;28;20762;-79
2023/12/08 00:18:58;;;;;;;37.03;21.20;;;0.00;99.90;;;;;;5044722;28;20705;-80
2023/12/08 00:21:26;;;;;;;56.40;22.80;;;0.00;99.90;;;;;;5022247;28;20304;-81
2023/12/08 00:23:53;;;;;;;42.20;22.00;;;0.00;99.90;;;;;;5042655;28;20243;-80
2023/12/08 00:26:20;;;;;;;48.30;22.80;;;-0.10;99.90;;;;;;5025978;28;20225;-80
2023/12/08 00:28:47;;;;;;;145.50;28.20;;;-0.10;99.90;;;;;;5033261;28;20274;-80
2023/12/08 00:31:13;;;;;;;44.47;22.37;;;-0.10;99.90;;;;;;5047016;28;20303;-79
2023/12/08 00:33:41;;;;;;;58.10;23.63;;;-0.20;99.90;;;;;;5044897;28;20520;-80
2023/12/08 00:36:17;;;;;;;43.53;22.37;;;-0.10;99.90;;;;;;5039989;28;20221;-79
2023/12/08 00:38:46;;;;;;;54.73;23.60;;;-0.20;99.90;;;;;;5041393;28;20223;-80
2023/12/08 00:41:13;;;;;;;37.97;22.07;;;-0.30;99.90;;;;;;5028132;28;20231;-79
2023/12/08 00:43:40;;;;;;;48.57;22.63;;;-0.30;99.90;;;;;;5028181;28;20691;-79
2023/12/08 00:46:09;;;;;;;120.83;26.20;;;-0.30;99.90;;;;;;5044229;28;20302;-79
2023/12/08 00:48:36;;;;;;;42.77;22.43;;;-0.40;99.90;;;;;;5045614;28;20217;-80
2023/12/08 00:51:02;;;;;;;123.17;26.73;;;-0.40;99.90;;;;;;5046242;28;20689;-80
2023/12/08 00:53:30;;;;;;;37.47;21.27;;;-0.40;99.90;;;;;;5046555;28;20316;-80
2023/12/08 00:55:58;;;;;;;104.73;24.13;;;-0.40;99.90;;;;;;5044484;28;20315;-80
2023/12/08 00:58:24;;;;;;;47.97;23.00;;;-0.40;99.90;;;;;;5043697;28;20322;-80
2023/12/08 01:00:52;;;;;;;135.10;26.57;;;-0.40;99.90;;;;;;5042482;28;20227;-80
2023/12/08 01:03:18;;;;;;;59.47;22.83;;;-0.40;99.90;;;;;;5024733;28;20940;-81
2023/12/08 01:05:46;;;;;;;97.13;24.13;;;-0.40;99.90;;;;;;5046677;28;20217;-80
2023/12/08 01:08:13;;;;;;;111.60;24.63;;;-0.40;99.90;;;;;;5041468;28;20228;-80
2023/12/08 01:10:39;;;;;;;58.37;22.30;;;-0.50;99.90;;;;;;5030823;28;20243;-80
2023/12/08 01:13:08;;;;;;;45.20;21.93;;;-0.50;99.90;;;;;;5024883;28;20238;-80
2023/12/08 01:15:34;;;;;;;57.33;22.47;;;-0.50;99.90;;;;;;5044330;28;20224;-80
2023/12/08 01:18:01;;;;;;;42.83;22.00;;;-0.50;99.90;;;;;;5026094;28;20220;-80
2023/12/08 01:20:28;;;;;;;96.27;23.37;;;-0.50;99.90;;;;;;5027145;28;20795;-80
2023/12/08 01:22:55;;;;;;;38.87;21.90;;;-0.50;99.90;;;;;;5026732;28;20221;-80
2023/12/08 01:25:22;;;;;;;37.53;21.83;;;-0.50;99.90;;;;;;5044035;28;20221;-80
2023/12/08 01:27:49;;;;;;;36.23;21.60;;;-0.50;99.90;;;;;;5044070;28;20245;-79
2023/12/08 01:30:17;;;;;;;65.60;21.73;;;-0.50;99.90;;;;;;5041474;28;20229;-78
2023/12/08 01:32:43;;;;;;;37.60;21.77;;;-0.50;99.90;;;;;;5022961;28;20249;-78
2023/12/08 01:35:11;;;;;;;46.17;21.30;;;-0.50;99.90;;;;;;5037595;28;20248;-78
2023/12/08 01:37:38;;;;;;;35.53;20.67;;;-0.50;99.90;;;;;;5038607;28;20317;-78
2023/12/08 01:40:08;;;;;;;56.00;23.10;;;-0.50;99.90;;;;;;5036024;28;20973;-78
2023/12/08 01:42:35;;;;;;;36.23;21.23;;;-0.50;99.90;;;;;;5037955;28;20275;-78
2023/12/08 01:45:01;;;;;;;36.60;20.20;;;-0.50;99.90;;;;;;5021858;28;20260;-78
2023/12/08 01:47:31;;;;;;;50.67;21.63;;;-0.50;99.90;;;;;;5017164;28;20282;-78
2023/12/08 01:49:58;;;;;;;51.93;22.47;;;-0.50;99.90;;;;;;5037705;28;20227;-78
2023/12/08 01:52:25;;;;;;;38.10;21.57;;;-0.60;99.90;;;;;;5038625;28;20902;-78
2023/12/08 01:54:55;;;;;;;35.40;19.80;;;-0.60;99.90;;;;;;5019989;28;21013;-78
2023/12/08 01:57:23;;;;;;;55.73;21.17;;;-0.60;99.90;;;;;;5038827;28;20219;-78
2023/12/08 01:59:51;;;;;;;79.37;22.73;;;-0.60;99.90;;;;;;5041271;28;20290;-78
2023/12/08 02:02:20;;;;;;;37.43;21.10;;;-0.60;99.90;;;;;;5016926;28;20232;-78
2023/12/08 02:04:50;;;;;;;59.80;22.30;;;-0.60;99.90;;;;;;5037522;28;20230;-78
2023/12/08 02:07:17;;;;;;;34.17;20.43;;;-0.60;99.90;;;;;;5034861;28;20720;-79
2023/12/08 02:09:45;;;;;;;166.90;27.20;;;-0.60;99.90;;;;;;5038980;28;20867;-79
2023/12/08 02:12:12;;;;;;;41.90;21.27;;;-0.60;99.90;;;;;;5044493;28;20311;-78
2023/12/08 02:14:39;;;;;;;35.13;20.37;;;-0.60;99.90;;;;;;5025214;28;20270;-78
2023/12/08 02:17:12;;;;;;;38.97;20.93;;;-0.60;99.90;;;;;;5045412;28;20254;-78
2023/12/08 02:19:39;;;;;;;41.03;21.60;;;-0.70;99.90;;;;;;5024237;28;20299;-78
2023/12/08 02:22:07;;;;;;;35.23;20.87;;;-0.70;99.90;;;;;;5024958;28;20321;-79
2023/12/08 02:24:35;;;;;;;44.63;22.17;;;-0.70;99.90;;;;;;5022582;28;20315;-79
2023/12/08 02:27:03;;;;;;;51.27;20.70;;;-0.70;99.90;;;;;;5027339;28;20300;-79
2023/12/08 02:29:30;;;;;;;39.03;21.40;;;-0.70;99.90;;;;;;5046241;28;20515;-79
2023/12/08 02:32:02;;;;;;;38.47;20.70;;;-0.70;99.90;;;;;;5020632;28;20225;-79
2023/12/08 02:34:30;;;;;;;38.00;21.10;;;-0.70;99.90;;;;;;5041303;28;20323;-79
2023/12/08 02:37:00;;;;;;;35.77;21.40;;;-0.70;99.90;;;;;;5046040;28;20233;-79
2023/12/08 02:39:28;;;;;;;45.97;22.10;;;-0.70;99.90;;;;;;5044893;28;20223;-79
2023/12/08 02:41:57;;;;;;;45.90;22.20;;;-0.70;99.90;;;;;;5046999;28;20797;-78
2023/12/08 02:44:24;;;;;;;61.87;23.53;;;-0.70;99.90;;;;;;5028860;28;20226;-79
2023/12/08 02:46:51;;;;;;;33.40;20.43;;;-0.70;99.90;;;;;;5047627;28;20231;-79
2023/12/08 02:49:18;;;;;;;58.10;21.30;;;-0.70;99.90;;;;;;5029710;28;20275;-79
2023/12/08 02:51:45;;;;;;;75.40;23.80;;;-0.70;99.90;;;;;;5023321;28;20236;-78
2023/12/08 02:54:12;;;;;;;35.50;19.97;;;-0.70;99.90;;;;;;5027226;28;20300;-78
2023/12/08 02:56:39;;;;;;;34.70;19.37;;;-0.70;99.90;;;;;;5045077;28;20235;-78
2023/12/08 02:59:07;;;;;;;74.23;22.60;;;-0.70;99.90;;;;;;5044563;28;20224;-78
2023/12/08 03:01:34;;;;;;;44.23;21.60;;;-0.80;99.90;;;;;;5037309;28;20231;-78
2023/12/08 03:04:01;;;;;;;37.73;20.23;;;-0.80;99.90;;;;;;5044744;28;20228;-79
2023/12/08 03:06:28;;;;;;;37.90;21.27;;;-0.80;99.90;;;;;;5030479;28;20235;-78
2023/12/08 03:08:55;;;;;;;49.63;20.87;;;-0.80;99.90;;;;;;5053310;28;20219;-79
2023/12/08 03:11:21;;;;;;;46.70;21.23;;;-0.80;99.90;;;;;;5046586;28;20282;-79
2023/12/08 03:13:48;;;;;;;273.37;36.40;;;-0.80;99.90;;;;;;5026798;28;20285;-78
2023/12/08 03:16:16;;;;;;;62.23;21.40;;;-0.90;99.90;;;;;;5050073;28;20257;-78
2023/12/08 03:18:43;;;;;;;41.07;20.63;;;-0.90;99.90;;;;;;5045091;28;20239;-78
2023/12/08 03:21:20;;;;;;;82.63;21.70;;;-0.90;99.90;;;;;;5040742;28;20879;-78
2023/12/08 03:23:47;;;;;;;35.67;20.13;;;-0.90;99.90;;;;;;5046087;28;20310;-78
2023/12/08 03:26:13;;;;;;;120.17;24.63;;;-0.90;99.90;;;;;;5026079;28;20391;-78
2023/12/08 03:28:40;;;;;;;36.37;21.00;;;-0.90;99.90;;;;;;5051274;28;20675;-78
2023/12/08 03:31:07;;;;;;;38.80;20.07;;;-1.00;99.90;;;;;;5045115;28;20741;-78
2023/12/08 03:33:35;;;;;;;50.03;20.87;;;-1.00;99.90;;;;;;5028908;28;20246;-78
2023/12/08 03:36:02;;;;;;;39.07;20.13;;;-1.00;99.90;;;;;;5040976;28;20305;-78
2023/12/08 03:38:28;;;;;;;37.00;20.10;;;-1.00;99.90;;;;;;5025997;28;20326;-77
2023/12/08 03:40:55;;;;;;;36.90;19.60;;;-1.00;99.90;;;;;;5041542;28;20702;-78
2023/12/08 03:43:22;;;;;;;34.70;19.50;;;-1.00;99.90;;;;;;5043508;28;20323;-78
2023/12/08 03:45:49;;;;;;;39.97;19.03;;;-1.00;99.90;;;;;;5048188;28;20262;-78
2023/12/08 03:48:15;;;;;;;34.20;18.67;;;-1.10;99.90;;;;;;5021525;28;21349;-78
2023/12/08 03:50:44;;;;;;;46.90;19.30;;;-1.10;99.90;;;;;;5037519;28;20866;-78
2023/12/08 03:53:10;;;;;;;30.90;17.47;;;-1.10;99.90;;;;;;5042742;28;20281;-77
2023/12/08 03:55:38;;;;;;;32.40;17.77;;;-1.10;99.90;;;;;;5041972;28;20234;-78
2023/12/08 03:58:05;;;;;;;31.67;18.67;;;-1.10;99.90;;;;;;5041167;28;20227;-77
2023/12/08 04:00:32;;;;;;;30.47;17.33;;;-1.10;99.90;;;;;;5043414;28;20702;-77
2023/12/08 04:02:59;;;;;;;28.80;17.33;;;-1.10;99.90;;;;;;5040043;28;20631;-78
2023/12/08 04:05:26;;;;;;;30.70;18.47;;;-1.10;99.90;;;;;;5024816;28;20247;-78
2023/12/08 04:07:55;;;;;;;34.23;18.30;;;-1.10;99.90;;;;;;5023555;28;20224;-77
2023/12/08 04:10:22;;;;;;;30.43;18.07;;;-1.10;99.90;;;;;;5023454;28;20286;-77
2023/12/08 04:12:49;;;;;;;31.53;19.33;;;-1.00;99.90;;;;;;5027617;28;20227;-78
2023/12/08 04:15:16;;;;;;;33.03;18.57;;;-1.00;99.90;;;;;;5026745;28;20355;-77
2023/12/08 04:17:43;;;;;;;33.47;17.80;;;-0.90;99.90;;;;;;5027729;28;20224;-78
2023/12/08 04:20:11;;;;;;;27.97;17.27;;;-0.90;99.90;;;;;;5023777;28;20215;-78
2023/12/08 04:22:37;;;;;;;27.20;17.47;;;-0.90;99.90;;;;;;5020785;28;21165;-77
2023/12/08 04:25:08;;;;;;;29.43;16.73;;;-0.90;99.90;;;;;;5024578;28;20620;-78
2023/12/08 04:27:34;;;;;;;28.40;16.53;;;-0.80;99.90;;;;;;5032767;28;20281;-77
2023/12/08 04:30:01;;;;;;;28.23;16.60;;;-0.80;99.90;;;;;;5040703;28;20224;-78
2023/12/08 04:32:28;;;;;;;28.07;16.80;;;-0.80;99.90;;;;;;5022499;28;20840;-77
2023/12/08 04:34:55;;;;;;;26.30;16.60;;;-0.70;99.90;;;;;;5041474;28;20228;-77
2023/12/08 04:37:22;;;;;;;26.13;15.87;;;-0.70;99.90;;;;;;5020314;28;20864;-78
2023/12/08 04:39:48;;;;;;;24.30;15.60;;;-0.70;99.90;;;;;;5020034;28;20248;-77
2023/12/08 04:42:17;;;;;;;25.97;15.60;;;-0.70;99.90;;;;;;5020827;28;20298;-78
2023/12/08 04:44:44;;;;;;;24.77;14.53;;;-0.70;99.90;;;;;;5023423;28;20277;-78
2023/12/08 04:47:11;;;;;;;24.87;14.50;;;-0.60;99.90;;;;;;5039213;28;20233;-78
2023/12/08 04:49:38;;;;;;;24.30;15.23;;;-0.60;99.90;;;;;;5038952;28;20865;-77
2023/12/08 04:52:05;;;;;;;24.13;15.50;;;-0.60;99.90;;;;;;5033908;28;20270;-77
2023/12/08 04:54:32;;;;;;;23.07;14.87;;;-0.60;99.90;;;;;;5039520;28;20239;-77
2023/12/08 04:56:58;;;;;;;23.10;14.73;;;-0.50;99.90;;;;;;5039000;28;20389;-78
2023/12/08 04:59:26;;;;;;;24.43;15.03;;;-0.50;99.90;;;;;;5022547;28;20227;-77
2023/12/08 05:01:53;;;;;;;25.30;15.57;;;-0.50;99.90;;;;;;5020841;28;20302;-78
2023/12/08 05:04:20;;;;;;;24.03;15.13;;;-0.50;99.90;;;;;;5023241;28;20311;-78
2023/12/08 05:06:47;;;;;;;23.50;14.67;;;-0.50;99.90;;;;;;5025060;28;20290;-78
2023/12/08 05:09:14;;;;;;;25.03;14.57;;;-0.40;99.90;;;;;;5038355;28;20306;-77
2023/12/08 05:11:41;;;;;;;27.13;15.60;;;-0.40;99.90;;;;;;5041076;28;20285;-77
2023/12/08 05:14:08;;;;;;;23.73;15.10;;;-0.40;99.90;;;;;;5037875;28;20247;-78
2023/12/08 05:16:36;;;;;;;24.63;14.90;;;-0.40;99.90;;;;;;5040039;28;20232;-78
2023/12/08 05:19:03;;;;;;;23.27;14.93;;;-0.40;99.90;;;;;;5020834;28;20226;-78
2023/12/08 05:21:31;;;;;;;23.53;14.33;;;-0.40;99.90;;;;;;5039921;28;20302;-77
2023/12/08 05:23:58;;;;;;;23.60;15.33;;;-0.40;99.90;;;;;;5040136;28;20227;-78
2023/12/08 05:26:25;;;;;;;29.50;15.03;;;-0.40;99.90;;;;;;5037135;28;20222;-78
2023/12/08 05:28:52;;;;;;;26.27;15.77;;;-0.30;99.90;;;;;;5025253;28;20227;-78
2023/12/08 05:31:19;;;;;;;40.77;17.17;;;-0.30;99.90;;;;;;5039384;28;20270;-78
2023/12/08 05:33:48;;;;;;;44.87;17.83;;;-0.40;99.90;;;;;;5021298;28;20232;-79
2023/12/08 05:36:15;;;;;;;31.37;16.33;;;-0.30;99.90;;;;;;5035610;28;20310;-77
2023/12/08 05:38:42;;;;;;;27.90;16.07;;;-0.30;99.90;;;;;;5037576;28;20215;-79
2023/12/08 05:41:09;;;;;;;42.00;16.30;;;-0.30;99.90;;;;;;5038690;28;20248;-79
2023/12/08 05:43:37;;;;;;;117.73;21.53;;;-0.30;99.90;;;;;;5021469;28;20892;-79
2023/12/08 05:46:04;;;;;;;33.43;16.53;;;-0.30;99.90;;;;;;5023211;28;20287;-79
2023/12/08 05:48:31;;;;;;;33.70;16.60;;;-0.30;99.90;;;;;;5038945;28;20710;-79
2023/12/08 05:50:59;;;;;;;108.60;21.43;;;-0.30;99.90;;;;;;5012594;28;20230;-78
2023/12/08 05:53:26;;;;;;;144.13;21.03;;;-0.30;99.90;;;;;;5019189;28;20233;-78
2023/12/08 05:55:53;;;;;;;33.20;18.37;;;-0.30;99.90;;;;;;5023338;28;20227;-78
2023/12/08 05:58:19;;;;;;;31.60;18.60;;;-0.20;99.90;;;;;;5021433;28;20236;-79
2023/12/08 06:00:46;;;;;;;44.07;18.30;;;-0.20;99.90;;;;;;5038115;28;20976;-79
2023/12/08 06:03:13;;;;;;;33.27;17.40;;;-0.20;99.90;;;;;;5038569;28;20246;-79
2023/12/08 06:05:40;;;;;;;28.27;17.10;;;-0.20;99.90;;;;;;5026684;28;20213;-79
2023/12/08 06:08:08;;;;;;;29.57;17.53;;;-0.20;99.90;;;;;;5023583;28;20248;-79
2023/12/08 06:10:35;;;;;;;34.77;18.17;;;-0.20;99.90;;;;;;5038896;28;20224;-79
2023/12/08 06:13:02;;;;;;;36.30;19.00;;;-0.20;99.90;;;;;;5045517;28;20249;-84
2023/12/08 06:15:29;;;;;;;110.33;23.20;;;-0.20;99.90;;;;;;5024715;28;20240;-80
2023/12/08 06:17:55;;;;;;;33.57;18.73;;;-0.20;99.90;;;;;;5027662;28;20271;-79
2023/12/08 06:20:22;;;;;;;37.10;18.80;;;-0.20;99.90;;;;;;5044052;28;20310;-80
2023/12/08 06:22:49;;;;;;;32.10;18.33;;;-0.20;99.90;;;;;;5036441;28;20693;-80
2023/12/08 06:25:18;;;;;;;33.40;19.40;;;-0.20;99.90;;;;;;5046121;28;20310;-80
2023/12/08 06:27:47;;;;;;;34.27;19.53;;;-0.20;99.90;;;;;;5054622;28;20255;-81
2023/12/08 06:30:14;;;;;;;34.00;19.03;;;-0.10;99.90;;;;;;5037994;28;20216;-80
2023/12/08 06:32:41;;;;;;;35.17;20.17;;;-0.10;99.90;;;;;;5048366;28;20294;-80
2023/12/08 06:35:08;;;;;;;59.17;20.00;;;-0.10;99.90;;;;;;5031101;28;20483;-80
2023/12/08 06:37:36;;;;;;;31.67;18.47;;;-0.10;99.90;;;;;;5051909;28;20740;-80
2023/12/08 06:40:04;;;;;;;33.97;19.73;;;-0.10;99.90;;;;;;5049567;28;20266;-81
2023/12/08 06:42:32;;;;;;;34.90;19.47;;;-0.10;99.90;;;;;;5046501;28;20570;-81
2023/12/08 06:45:00;;;;;;;35.40;19.73;;;-0.10;99.90;;;;;;5029321;28;20234;-81
2023/12/08 06:47:27;;;;;;;31.37;19.17;;;0.00;99.90;;;;;;5048999;28;20248;-81
2023/12/08 06:49:53;;;;;;;33.43;20.27;;;0.00;99.90;;;;;;5046114;28;20758;-82
2023/12/08 06:52:20;;;;;;;46.03;20.33;;;0.00;99.90;;;;;;5032701;28;20740;-81
2023/12/08 06:54:50;;;;;;;45.30;20.87;;;0.00;99.90;;;;;;5045896;28;20862;-81
2023/12/08 06:57:17;;;;;;;32.00;20.00;;;0.00;99.90;;;;;;5052932;28;20236;-81
2023/12/08 06:59:45;;;;;;;35.60;20.77;;;0.00;99.90;;;;;;5033667;28;20229;-81
2023/12/08 07:02:12;;;;;;;33.00;19.83;;;0.00;99.90;;;;;;5041667;28;20805;-81
2023/12/08 07:04:39;;;;;;;34.23;20.00;;;0.10;99.90;;;;;;5055503;28;20322;-81
2023/12/08 07:07:05;;;;;;;33.10;19.07;;;0.10;99.90;;;;;;5053765;28;20284;-81
2023/12/08 07:09:32;;;;;;;32.97;20.00;;;0.10;99.90;;;;;;5050607;28;20648;-80
2023/12/08 07:11:59;;;;;;;32.87;19.13;;;0.10;99.90;;;;;;5043001;28;20243;-81
2023/12/08 07:14:25;;;;;;;34.80;19.70;;;0.10;99.90;;;;;;5032646;28;20257;-81
2023/12/08 07:16:54;;;;;;;29.93;19.30;;;0.10;99.90;;;;;;5052898;28;20237;-82
2023/12/08 07:19:21;;;;;;;31.37;19.60;;;0.20;99.90;;;;;;5029740;28;20925;-81
2023/12/08 07:21:47;;;;;;;31.23;19.67;;;0.20;99.90;;;;;;5047843;28;20312;-80
2023/12/08 07:24:14;;;;;;;30.50;18.70;;;0.20;99.90;;;;;;5047075;28;20324;-81
2023/12/08 07:26:41;;;;;;;35.30;19.93;;;0.20;99.90;;;;;;5051721;28;20225;-81
2023/12/08 07:29:08;;;;;;;35.03;19.20;;;0.20;99.90;;;;;;5031711;28;20308;-81
2023/12/08 07:31:35;;;;;;;31.67;20.27;;;0.20;99.90;;;;;;5028642;28;20304;-80
2023/12/08 07:34:03;;;;;;;31.63;18.80;;;0.20;99.90;;;;;;5046695;28;20256;-81
2023/12/08 07:36:29;;;;;;;30.37;18.80;;;0.20;99.90;;;;;;5030262;28;20658;-81
2023/12/08 07:38:56;;;;;;;28.97;19.00;;;0.20;99.90;;;;;;5047655;28;20307;-81
2023/12/08 07:41:23;;;;;;;32.73;18.60;;;0.30;99.90;;;;;;5047092;28;20456;-81
2023/12/08 07:43:54;;;;;;;30.13;19.40;;;0.30;99.90;;;;;;5031674;28;20750;-80
2023/12/08 07:46:22;;;;;;;29.97;19.10;;;0.30;99.90;;;;;;5045372;28;20223;-81
2023/12/08 07:48:49;;;;;;;30.60;18.90;;;0.30;99.90;;;;;;5039889;28;20460;-81
2023/12/08 07:51:17;;;;;;;30.40;18.73;;;0.30;99.90;;;;;;5031661;28;20484;-81
2023/12/08 07:53:44;;;;;;;31.27;18.37;;;0.30;99.90;;;;;;5042108;28;20296;-82
2023/12/08 07:56:11;;;;;;;30.27;19.27;;;0.30;99.90;;;;;;5025772;28;20246;-80
2023/12/08 07:58:38;;;;;;;28.93;17.97;;;0.40;99.90;;;;;;5035485;28;20952;-80
2023/12/08 08:01:05;;;;;;;32.07;19.67;;;0.40;99.90;;;;;;5044424;28;20221;-81
2023/12/08 08:03:32;;;;;;;30.07;18.50;;;0.40;99.90;;;;;;5026284;28;20228;-80
2023/12/08 08:05:59;;;;;;;31.10;19.00;;;0.40;99.90;;;;;;5048035;28;20246;-80
2023/12/08 08:08:27;;;;;;;31.00;19.67;;;0.40;99.90;;;;;;5024814;28;20227;-80
2023/12/08 08:10:54;;;;;;;26.00;17.60;;;0.40;99.90;;;;;;5026917;28;20217;-80
2023/12/08 08:13:21;;;;;;;30.70;18.70;;;0.40;99.90;;;;;;5044347;28;20224;-80
2023/12/08 08:15:47;;;;;;;31.87;18.73;;;0.40;99.90;;;;;;5031926;28;20231;-80
2023/12/08 08:18:14;;;;;;;33.60;18.43;;;0.50;99.90;;;;;;5042529;28;20298;-80
2023/12/08 08:20:42;;;;;;;30.27;19.10;;;0.50;99.90;;;;;;5022174;28;20228;-80
2023/12/08 08:23:09;;;;;;;31.40;19.53;;;0.50;99.90;;;;;;5026164;28;20320;-80
2023/12/08 08:25:37;;;;;;;30.07;18.77;;;0.50;99.90;;;;;;5043304;28;20652;-80
2023/12/08 08:28:07;;;;;;;30.30;19.20;;;0.50;99.90;;;;;;5044893;28;20249;-80
2023/12/08 08:30:34;;;;;;;29.20;18.60;;;0.50;99.90;;;;;;5045261;28;20643;-81
2023/12/08 08:33:01;;;;;;;29.77;18.57;;;0.60;99.90;;;;;;5027321;28;20248;-80
2023/12/08 08:35:28;;;;;;;28.47;18.60;;;0.60;99.90;;;;;;5044159;28;20228;-81
2023/12/08 08:37:54;;;;;;;31.93;19.17;;;0.60;99.90;;;;;;5029790;28;20316;-81
2023/12/08 08:40:21;;;;;;;28.50;18.80;;;0.60;99.90;;;;;;5036189;28;20236;-80
2023/12/08 08:42:50;;;;;;;36.30;20.07;;;0.60;99.90;;;;;;5043742;28;20221;-80
2023/12/08 08:45:19;;;;;;;29.93;18.73;;;0.60;99.90;;;;;;5042218;28;20221;-80
2023/12/08 08:47:46;;;;;;;31.63;20.23;;;0.60;99.90;;;;;;5044701;28;20330;-81
2023/12/08 08:50:13;;;;;;;29.77;19.03;;;0.60;99.90;;;;;;5042208;28;20894;-81
2023/12/08 08:52:40;;;;;;;29.90;19.27;;;0.70;99.90;;;;;;5024473;28;20687;-81
2023/12/08 08:55:10;;;;;;;30.17;18.73;;;0.70;99.90;;;;;;5026252;28;20231;-80
2023/12/08 08:57:37;;;;;;;29.80;18.70;;;0.70;99.90;;;;;;5039137;28;20228;-81
2023/12/08 09:00:12;;;;;;;32.97;19.23;;;0.70;99.90;;;;;;5039756;28;20224;-81
2023/12/08 09:02:39;;;;;;;31.77;19.20;;;0.70;99.90;;;;;;5035076;28;20225;-80
2023/12/08 09:05:06;;;;;;;30.03;18.87;;;0.80;99.90;;;;;;5041432;28;20229;-81
2023/12/08 09:07:33;;;;;;;29.40;18.93;;;0.70;99.90;;;;;;5041007;28;20285;-81
2023/12/08 09:10:00;;;;;;;31.40;19.23;;;0.80;99.90;;;;;;5026526;28;20238;-80
2023/12/08 09:12:27;;;;;;;30.37;18.70;;;0.80;99.90;;;;;;5040615;28;20710;-80
2023/12/08 09:14:56;;;;;;;29.73;19.27;;;0.80;99.90;;;;;;5025673;28;20783;-80
2023/12/08 09:17:24;;;;;;;28.13;18.10;;;0.80;99.90;;;;;;5031344;28;20227;-80
2023/12/08 09:19:51;;;;;;;28.33;18.47;;;0.90;99.90;;;;;;5041024;28;20233;-80
2023/12/08 09:22:18;;;;;;;28.80;19.50;;;0.90;99.90;;;;;;5037311;28;20329;-80
2023/12/08 09:24:45;;;;;;;28.07;18.17;;;0.90;99.90;;;;;;5030694;28;20303;-81
2023/12/08 09:27:11;;;;;;;29.37;18.03;;;0.90;99.90;;;;;;5027022;28;20322;-80
2023/12/08 09:29:38;;;;;;;29.23;18.50;;;0.90;99.90;;;;;;5038981;28;20298;-80
2023/12/08 09:32:06;;;;;;;27.63;18.10;;;0.90;99.90;;;;;;5042547;28;20245;-80
2023/12/08 09:34:34;;;;;;;27.50;18.23;;;1.00;99.90;;;;;;5041281;28;20246;-80
2023/12/08 09:37:01;;;;;;;27.67;18.50;;;1.00;99.90;;;;;;5033077;28;20345;-80
2023/12/08 09:39:27;;;;;;;25.90;17.10;;;1.00;99.90;;;;;;5036306;28;20626;-80
2023/12/08 09:42:00;;;;;;;27.23;18.07;;;1.00;99.90;;;;;;5036195;28;20231;-80
2023/12/08 09:44:28;;;;;;;29.27;18.17;;;1.00;99.90;;;;;;5041064;28;20256;-80
2023/12/08 09:46:57;;;;;;;26.73;18.27;;;1.00;99.90;;;;;;5041230;28;20271;-80
2023/12/08 09:49:29;;;;;;;30.00;18.70;;;1.00;99.90;;;;;;5026604;28;20232;-80
2023/12/08 09:51:57;;;;;;;26.33;17.57;;;1.10;99.90;;;;;;5040723;28;20310;-80
2023/12/08 09:54:24;;;;;;;26.93;17.57;;;1.10;99.90;;;;;;5023180;28;20224;-81
2023/12/08 09:56:52;;;;;;;27.47;17.97;;;1.10;99.90;;;;;;5025786;28;20229;-80
2023/12/08 09:59:22;;;;;;;25.93;17.60;;;1.10;99.90;;;;;;5041534;28;20784;-81
2023/12/08 10:01:49;;;;;;;27.80;18.13;;;1.10;99.90;;;;;;5024563;28;20223;-80
2023/12/08 10:04:16;;;;;;;27.90;17.10;;;1.10;99.90;;;;;;5037447;28;20232;-80
2023/12/08 10:06:43;;;;;;;26.83;18.97;;;1.10;99.90;;;;;;5026208;28;20220;-80
2023/12/08 10:09:13;;;;;;;28.17;17.50;;;1.10;99.90;;;;;;5015103;28;20225;-81
2023/12/08 10:11:40;;;;;;;26.80;17.50;;;1.10;99.90;;;;;;5015460;28;20225;-80
2023/12/08 10:14:07;;;;;;;28.63;17.67;;;1.10;99.90;;;;;;5014929;28;20235;-80
2023/12/08 10:16:34;;;;;;;27.40;18.53;;;1.10;99.90;;;;;;5033711;28;21940;-80
2023/12/08 10:19:05;;;;;;;26.20;17.30;;;1.10;99.90;;;;;;5044911;28;20243;-80
2023/12/08 10:21:32;;;;;;;24.53;17.20;;;1.10;99.90;;;;;;5029617;28;20843;-81
2023/12/08 10:24:00;;;;;;;26.17;17.10;;;1.20;99.90;;;;;;5041718;28;20233;-81
2023/12/08 10:26:29;;;;;;;25.70;16.83;;;1.20;99.90;;;;;;5021286;28;20266;-80
2023/12/08 10:28:57;;;;;;;26.70;17.77;;;1.20;99.90;;;;;;5026137;28;20763;-81
2023/12/08 10:31:24;;;;;;;25.33;18.20;;;1.20;99.90;;;;;;5046313;28;20322;-80
2023/12/08 10:33:50;;;;;;;25.40;16.83;;;1.20;99.90;;;;;;5024100;28;20320;-81
2023/12/08 10:36:17;;;;;;;28.77;18.20;;;1.20;99.90;;;;;;5022998;28;20228;-80
2023/12/08 10:38:44;;;;;;;26.90;17.37;;;1.30;99.90;;;;;;5031225;28;20817;-81
2023/12/08 10:41:11;;;;;;;26.90;17.40;;;1.30;99.90;;;;;;5033326;28;21152;-81
2023/12/08 10:43:40;;;;;;;26.17;17.53;;;1.30;99.90;;;;;;5029200;28;20311;-81
2023/12/08 10:46:07;;;;;;;25.30;17.43;;;1.30;99.90;;;;;;5041070;28;20220;-81
2023/12/08 10:48:35;;;;;;;25.13;17.00;;;1.30;99.90;;;;;;5043230;28;20228;-81
2023/12/08 10:51:03;;;;;;;23.10;16.90;;;1.30;99.90;;;;;;5027912;28;20313;-81
2023/12/08 10:53:31;;;;;;;25.87;16.83;;;1.30;99.90;;;;;;5028028;28;20732;-80
2023/12/08 10:56:04;;;;;;;27.10;17.27;;;1.40;99.90;;;;;;5032454;28;20549;-81
2023/12/08 10:58:34;;;;;;;25.23;17.03;;;1.40;99.90;;;;;;5043050;28;20225;-81
2023/12/08 11:01:07;;;;;;;25.17;17.27;;;1.40;99.90;;;;;;5053627;28;20818;-80
2023/12/08 11:03:35;;;;;;;24.00;16.13;;;1.40;99.90;;;;;;5051497;28;20320;-80
2023/12/08 11:06:07;;;;;;;26.13;17.73;;;1.40;99.90;;;;;;5028839;28;20301;-81
2023/12/08 11:08:35;;;;;;;25.17;17.37;;;1.40;99.90;;;;;;5046225;28;20235;-81
2023/12/08 11:11:05;;;;;;;26.10;16.97;;;1.40;99.90;;;;;;5048014;28;20299;-81
2023/12/08 11:13:37;;;;;;;26.80;18.00;;;1.40;99.90;;;;;;5030626;28;20787;-81
2023/12/08 11:16:27;;;;;;;26.90;17.60;;;1.40;99.90;;;;;;5046978;28;20219;-81
2023/12/08 11:18:56;;;;;;;28.27;18.23;;;1.40;99.90;;;;;;5047335;28;21928;-82
2023/12/08 11:21:23;;;;;;;27.33;18.83;;;1.50;99.90;;;;;;5045920;28;20694;-80
2023/12/08 11:23:51;;;;;;;29.10;17.90;;;1.40;99.90;;;;;;5023897;28;20732;-80
2023/12/08 11:26:26;;;;;;;24.60;17.83;;;1.40;99.90;;;;;;5048064;28;20484;-80
2023/12/08 11:29:03;;;;;;;27.73;18.00;;;1.40;99.90;;;;;;5027969;28;20231;-80
2023/12/08 11:31:38;;;;;;;27.43;17.50;;;1.40;99.90;;;;;;5042959;28;20276;-80
2023/12/08 11:34:11;;;;;;;25.93;17.73;;;1.40;99.90;;;;;;5035165;28;20288;-80
2023/12/08 11:36:43;;;;;;;27.30;18.33;;;1.30;99.90;;;;;;5049000;28;20606;-80
2023/12/08 11:39:42;;;;;;;27.43;18.27;;;1.30;99.90;;;;;;5030293;28;20219;-80
2023/12/08 11:42:10;;;;;;;27.70;17.90;;;1.30;99.90;;;;;;5044364;28;20235;-80
2023/12/08 11:44:38;;;;;;;30.13;18.90;;;1.30;99.90;;;;;;5035115;28;20229;-81
2023/12/08 11:47:08;;;;;;;27.20;17.67;;;1.30;99.90;;;;;;5051454;28;20223;-81
2023/12/08 11:49:37;;;;;;;26.00;17.77;;;1.20;99.90;;;;;;5033817;28;20248;-80
2023/12/08 11:52:12;;;;;;;32.70;18.80;;;1.20;99.90;;;;;;5033974;28;20228;-80
2023/12/08 11:55:06;;;;;;;28.57;18.27;;;1.20;99.90;;;;;;5028568;28;20489;-82
2023/12/08 11:57:35;;;;;;;29.80;20.07;;;1.10;99.90;;;;;;5030359;28;20243;-81
2023/12/08 12:00:07;;;;;;;31.27;19.27;;;1.10;99.90;;;;;;5051692;28;20235;-80
2023/12/08 12:02:40;;;;;;;26.10;17.70;;;1.10;99.90;;;;;;5051752;28;20228;-81
2023/12/08 12:05:09;;;;;;;30.50;19.03;;;1.00;99.90;;;;;;5049509;28;20222;-82
2023/12/08 12:07:37;;;;;;;45.93;21.00;;;1.00;99.90;;;;;;5045693;28;20217;-82
2023/12/08 12:10:08;;;;;;;30.03;19.63;;;1.00;99.90;;;;;;5045755;28;20228;-82
2023/12/08 12:12:37;;;;;;;39.53;20.10;;;1.00;99.90;;;;;;5045177;28;20220;-83
2023/12/08 12:15:05;;;;;;;47.47;20.27;;;0.90;99.90;;;;;;5053232;28;20229;-82
2023/12/08 12:17:33;;;;;;;37.07;19.93;;;1.00;99.90;;;;;;5034452;28;20220;-82
2023/12/08 12:20:01;;;;;;;32.17;20.23;;;0.90;99.90;;;;;;5053712;28;20715;-82
2023/12/08 12:22:28;;;;;;;29.83;19.00;;;0.90;99.90;;;;;;5033352;28;20228;-82
2023/12/08 12:24:54;;;;;;;37.00;19.93;;;0.90;99.90;;;;;;5052594;28;20251;-82
2023/12/08 12:27:21;;;;;;;31.53;20.80;;;0.90;99.90;;;;;;5047062;28;20493;-82
2023/12/08 12:29:48;;;;;;;35.60;20.07;;;0.90;99.90;;;;;;5050512;28;20247;-81
2023/12/08 12:32:15;;;;;;;32.80;19.13;;;0.80;99.90;;;;;;5026233;28;20726;-91
2023/12/08 12:34:42;;;;;;;49.23;20.53;;;0.80;99.90;;;;;;5036724;28;20229;-87